Startpagina
METAR-TAF:

METAR-TAF

Vliegvelden :

Meeker Airport

Meeker, Colorado, Verenigde Staten

breedte: 40-02-32N, lengte: 107-53-23W, hoogte: 1948 m

Actueel weer

Dit bericht is 44 minuten geleden gemaakt, om 11:53 UTC
Weinig wind
Temperatuur 5°C
Vochtigheid 87%
Druk 1006 hPa
Zicht: 16.1 km
Geheel bewolkt op 4100 ft
lichte regen

METAR: KEEO 201153Z AUTO 00000KT 10SM -RA OVC041 05/03 A2972 RMK AO2 RAE17B43 SLP018 P0000 60015 70015 T00500033 10094 20044 58006

Tijdstip: 05:37 (12:37 UTC)


TAF: ontbreekt

Waarnemingen en weersverwachtingen van meer dan 4000 vliegvelden (METAR en TAF).

De beschikbare stations zijn de gele en rode punten op de kaart.

Ga met uw muis naar het station om de naam te zien.

Klik dan om waarnemingen en weersverwachtingen te zien.

kaart wijzigen: klik op de groene knoppen met een zwart kruis om in te zoomen, op de groene knop met een streepje om uit te zoomen of op de groene pijlen voor aangrenzende kaarten.


METAR-TAF: